Time;durP1;ratioP1;P1;durP2;ratioP2;P2;SDS_P1;SDS_P2;PMS_P1;PMS_P2;Temp;Humidity;BMP_temperature;BMP_pressure;BME280_temperature;BME280_humidity;BME280_pressure;Samples;Min_cycle;Max_cycle;Signal;HPM_P1;HPM_P2
2022/09/20 03:01:21;;;;;;;;;;;19.80;46.60;;;;;;5629490;23;45740;-68
2022/09/20 03:04:02;;;;;;;;;;;19.80;46.70;;;;;;4964263;28;45420;-62
2022/09/20 03:06:30;;;;;;;;;;;19.80;46.70;;;;;;4954007;28;45303;-62
2022/09/20 03:09:16;;;;;;;;;;;19.80;46.60;;;;;;4947027;28;46002;-63
2022/09/20 03:11:44;;;;;;;;;;;19.80;46.70;;;;;;4963015;28;45173;-63
2022/09/20 03:14:12;;;;;;;;;;;19.80;46.60;;;;;;4953519;28;45200;-63
2022/09/20 03:16:44;;;;;;;;;;;19.80;46.60;;;;;;4950911;28;45255;-64
2022/09/20 03:19:32;;;;;;;;;;;19.80;46.60;;;;;;4975370;28;45773;-64
2022/09/20 03:22:17;;;;;;;;;;;19.80;46.60;;;;;;4951699;28;44999;-62
2022/09/20 03:24:47;;;;;;;;;;;19.80;46.60;;;;;;4967905;28;44905;-65
2022/09/20 03:27:15;;;;;;;;;;;19.80;46.60;;;;;;4955522;28;45503;-62
2022/09/20 03:29:51;;;;;;;;;;;19.80;46.60;;;;;;4949612;28;46102;-63
2022/09/20 03:32:35;;;;;;;;;;;19.80;46.60;;;;;;4942200;28;46229;-63
2022/09/20 03:35:16;;;;;;;;;;;19.80;46.70;;;;;;4968435;28;45420;-64
2022/09/20 03:37:51;;;;;;;;;;;19.80;46.60;;;;;;4969978;28;45004;-63
2022/09/20 03:40:16;;;;;;;;;;;19.80;46.70;;;;;;4967555;28;46333;-64
2022/09/20 03:42:46;;;;;;;;;;;19.80;46.70;;;;;;4971821;28;45057;-63
2022/09/20 03:45:11;;;;;;;;;;;19.70;46.70;;;;;;4972447;28;46086;-60
2022/09/20 03:47:53;;;;;;;;;;;19.70;46.70;;;;;;4962756;28;45264;-63
2022/09/20 03:50:41;;;;;;;;;;;19.70;46.70;;;;;;4960965;28;46222;-63
2022/09/20 03:53:27;;;;;;;;;;;19.70;46.70;;;;;;4962108;28;45079;-63
2022/09/20 03:56:03;;;;;;;;;;;19.70;46.70;;;;;;4969524;28;45262;-63
2022/09/20 03:58:48;;;;;;;;;;;19.70;46.70;;;;;;4953726;28;45611;-65
2022/09/20 04:01:33;;;;;;;;;;;19.70;46.70;;;;;;4957742;28;46132;-62
2022/09/20 04:04:11;;;;;;;;;;;19.70;46.70;;;;;;4909076;28;45504;-64
2022/09/20 04:06:42;;;;;;;;;;;19.70;46.70;;;;;;4960209;28;45827;-64
2022/09/20 04:09:08;;;;;;;;;;;19.70;46.70;;;;;;4961377;28;45527;-63
2022/09/20 04:11:36;;;;;;;;;;;19.70;46.70;;;;;;4968470;28;45268;-63
2022/09/20 04:14:07;;;;;;;;;;;19.70;46.80;;;;;;4944530;28;45436;-61
2022/09/20 04:16:36;;;;;;;;;;;19.70;46.70;;;;;;4956458;28;45378;-63
2022/09/20 04:19:10;;;;;;;;;;;19.70;46.70;;;;;;4971092;28;45296;-62
2022/09/20 04:21:47;;;;;;;;;;;19.70;46.70;;;;;;4960398;28;45343;-63
2022/09/20 04:24:28;;;;;;;;;;;19.70;46.70;;;;;;4951629;28;44947;-62
2022/09/20 04:27:14;;;;;;;;;;;19.70;46.70;;;;;;4965372;28;45521;-63
2022/09/20 04:29:43;;;;;;;;;;;19.70;46.70;;;;;;4942343;28;45369;-61
2022/09/20 04:32:18;;;;;;;;;;;19.70;46.70;;;;;;4950164;28;45279;-64
2022/09/20 04:37:31;;;;;;;;;;;19.60;46.70;;;;;;4954964;28;47485;-63
2022/09/20 04:40:00;;;;;;;;;;;19.60;46.70;;;;;;4949157;28;45488;-64
2022/09/20 04:42:44;;;;;;;;;;;19.60;46.70;;;;;;4966854;28;46257;-63
2022/09/20 04:45:29;;;;;;;;;;;19.60;46.70;;;;;;4967137;28;45549;-62
2022/09/20 04:48:00;;;;;;;;;;;19.60;46.70;;;;;;4968344;28;45504;-61
2022/09/20 04:50:32;;;;;;;;;;;19.60;46.70;;;;;;4970615;28;45673;-63
2022/09/20 04:53:17;;;;;;;;;;;19.60;46.70;;;;;;4950982;28;45869;-62
2022/09/20 04:55:59;;;;;;;;;;;19.60;46.80;;;;;;4968976;28;45368;-62
2022/09/20 04:58:37;;;;;;;;;;;19.60;46.80;;;;;;4952236;28;45690;-62
2022/09/20 05:01:15;;;;;;;;;;;19.60;46.70;;;;;;4973066;28;45065;-64
2022/09/20 05:03:50;;;;;;;;;;;19.60;46.80;;;;;;4961430;28;48038;-63
2022/09/20 05:06:34;;;;;;;;;;;19.60;46.80;;;;;;4961030;28;44947;-64
2022/09/20 05:09:17;;;;;;;;;;;19.70;46.80;;;;;;4968367;28;44989;-62
2022/09/20 05:12:02;;;;;;;;;;;19.70;46.80;;;;;;4946636;28;46347;-62
2022/09/20 05:14:33;;;;;;;;;;;19.70;46.80;;;;;;4963341;28;45574;-61
2022/09/20 05:17:03;;;;;;;;;;;19.70;46.80;;;;;;4968941;28;45239;-62
2022/09/20 05:19:31;;;;;;;;;;;19.70;46.90;;;;;;4949413;28;45351;-68
2022/09/20 05:22:05;;;;;;;;;;;19.70;46.90;;;;;;4962427;28;44823;-65
2022/09/20 05:24:30;;;;;;;;;;;19.70;46.90;;;;;;4958008;28;46038;-61
2022/09/20 05:27:05;;;;;;;;;;;19.70;46.80;;;;;;4967374;28;45337;-62
2022/09/20 05:29:33;;;;;;;;;;;19.70;46.80;;;;;;4966888;28;45443;-62
2022/09/20 05:32:05;;;;;;;;;;;19.70;46.70;;;;;;4967942;28;44958;-62
2022/09/20 05:34:32;;;;;;;;;;;19.60;46.80;;;;;;4942944;28;48149;-62
2022/09/20 05:37:03;;;;;;;;;;;19.60;46.80;;;;;;4951843;28;45420;-61
2022/09/20 05:39:33;;;;;;;;;;;19.50;47.00;;;;;;4958890;28;44603;-62
2022/09/20 05:42:03;;;;;;;;;;;19.40;47.10;;;;;;4970066;28;45658;-61
2022/09/20 05:44:47;;;;;;;;;;;19.30;47.40;;;;;;4970884;28;46162;-61
2022/09/20 05:47:17;;;;;;;;;;;19.20;47.50;;;;;;4974242;28;45503;-61
2022/09/20 05:50:01;;;;;;;;;;;19.10;47.70;;;;;;4958873;28;45832;-60
2022/09/20 05:52:40;;;;;;;;;;;19.00;47.90;;;;;;4978355;28;45549;-60
2022/09/20 05:55:19;;;;;;;;;;;19.00;48.10;;;;;;4949517;28;45599;-61
2022/09/20 05:57:45;;;;;;;;;;;18.90;48.30;;;;;;4953720;28;45265;-63
2022/09/20 06:00:14;;;;;;;;;;;18.90;48.30;;;;;;4976523;28;45250;-59
2022/09/20 06:02:58;;;;;;;;;;;18.80;48.50;;;;;;4954746;28;45851;-61
2022/09/20 06:05:36;;;;;;;;;;;18.80;48.80;;;;;;4945628;28;46407;-61
2022/09/20 06:08:15;;;;;;;;;;;18.70;48.80;;;;;;4946633;28;45339;-56
2022/09/20 06:10:52;;;;;;;;;;;18.70;49.30;;;;;;4952564;28;44904;-64
2022/09/20 06:13:21;;;;;;;;;;;18.60;49.60;;;;;;4949814;28;45705;-58
2022/09/20 06:15:48;;;;;;;;;;;18.50;49.70;;;;;;4947075;28;45951;-57
2022/09/20 06:18:17;;;;;;;;;;;18.50;50.00;;;;;;4951324;28;45558;-60
2022/09/20 06:20:45;;;;;;;;;;;18.40;50.10;;;;;;4952506;28;45037;-61
2022/09/20 06:23:10;;;;;;;;;;;18.40;50.10;;;;;;4949226;28;45605;-60
2022/09/20 06:25:43;;;;;;;6.00;0.98;;;18.40;50.10;;;;;;4943021;28;45828;-59
2022/09/20 06:28:34;;;;;;;6.82;1.20;;;18.40;49.60;;;;;;4948469;28;45093;-62
2022/09/20 06:30:59;;;;;;;4.15;1.45;;;18.40;49.90;;;;;;4948313;28;45354;-61
2022/09/20 06:33:27;;;;;;;5.00;1.30;;;18.50;49.10;;;;;;4951857;28;45508;-64
2022/09/20 06:41:52;;;;;;;2.25;0.98;;;19.10;48.30;;;;;;4938985;28;45517;-60
2022/09/20 06:44:18;;;;;;;3.97;1.00;;;19.30;47.90;;;;;;4935484;28;45615;-62
2022/09/20 06:46:43;;;;;;;2.95;0.85;;;19.50;47.70;;;;;;4942115;28;46104;-63
2022/09/20 06:49:09;;;;;;;3.90;0.80;;;19.70;47.50;;;;;;4942320;28;45188;-58
2022/09/20 06:51:36;;;;;;;2.20;0.80;;;19.90;47.40;;;;;;4952989;28;45152;-61
2022/09/20 06:54:01;;;;;;;3.83;0.80;;;20.00;47.10;;;;;;4953892;28;45464;-58
2022/09/20 06:56:29;;;;;;;1.73;0.55;;;20.10;46.90;;;;;;4949532;28;46043;-61
2022/09/20 06:58:55;;;;;;;2.30;0.90;;;20.30;46.80;;;;;;4936650;28;45236;-60
2022/09/20 07:01:20;;;;;;;3.65;0.77;;;20.40;46.70;;;;;;4955399;28;45502;-61
2022/09/20 07:03:46;;;;;;;2.08;0.60;;;20.50;46.60;;;;;;4966422;28;45392;-61
2022/09/20 07:06:12;;;;;;;2.92;1.00;;;20.60;46.50;;;;;;4967190;28;45018;-63
2022/09/20 07:08:38;;;;;;;2.75;0.75;;;20.70;46.30;;;;;;4967952;28;45458;-62
2022/09/20 07:11:11;;;;;;;1.90;0.70;;;20.80;46.20;;;;;;4972478;28;45254;-63
2022/09/20 07:13:36;;;;;;;2.53;0.73;;;21.00;46.20;;;;;;4975504;28;45168;-67
2022/09/20 07:16:03;;;;;;;0.93;0.60;;;21.10;46.00;;;;;;4964476;28;45945;-62
2022/09/20 07:18:28;;;;;;;1.98;0.70;;;21.20;45.90;;;;;;4950019;28;45508;-60
2022/09/20 07:20:57;;;;;;;1.05;0.60;;;21.40;45.80;;;;;;4966605;28;45009;-62
2022/09/20 07:23:26;;;;;;;2.10;0.70;;;21.50;45.70;;;;;;4971013;28;45186;-61
2022/09/20 07:25:52;;;;;;;1.10;0.70;;;21.60;45.60;;;;;;4966276;28;46161;-62
2022/09/20 07:28:19;;;;;;;2.85;0.60;;;21.70;45.40;;;;;;4949537;28;45416;-61
2022/09/20 07:30:46;;;;;;;1.58;0.70;;;21.80;45.30;;;;;;4973618;28;45494;-61
2022/09/20 07:33:18;;;;;;;4.13;0.70;;;21.80;45.20;;;;;;4970501;28;45261;-63
2022/09/20 07:35:44;;;;;;;1.02;0.75;;;21.90;45.10;;;;;;4970137;28;46228;-61
2022/09/20 07:38:11;;;;;;;1.58;0.80;;;22.00;45.00;;;;;;4963907;28;45500;-62
2022/09/20 07:40:36;;;;;;;;;;;22.10;45.00;;;;;;4970342;28;44694;-66
2022/09/20 07:43:02;;;;;;;;;;;22.20;44.60;;;;;;4975569;28;45559;-61
2022/09/20 07:45:27;;;;;;;;;;;22.20;44.50;;;;;;4968124;28;45101;-60
2022/09/20 07:47:53;;;;;;;;;;;22.30;44.40;;;;;;4975145;28;45209;-60
2022/09/20 07:50:18;;;;;;;;;;;22.40;44.30;;;;;;4965015;28;44829;-63
2022/09/20 07:52:44;;;;;;;;;;;22.50;44.20;;;;;;4970496;28;44896;-59
2022/09/20 07:55:10;;;;;;;;;;;22.50;44.10;;;;;;4966660;28;46741;-62
2022/09/20 07:57:36;;;;;;;;;;;22.60;44.00;;;;;;4964639;28;45710;-60
2022/09/20 08:00:02;;;;;;;;;;;22.70;44.00;;;;;;4969842;28;44743;-65
2022/09/20 08:02:28;;;;;;;;;;;22.70;43.90;;;;;;4969590;28;45604;-62
2022/09/20 08:04:53;;;;;;;;;;;22.80;43.80;;;;;;4963336;28;46113;-61
2022/09/20 08:07:19;;;;;;;;;;;22.90;43.70;;;;;;4964002;28;45524;-61
2022/09/20 08:09:44;;;;;;;;;;;22.90;43.60;;;;;;4970084;28;45419;-61
2022/09/20 08:12:10;;;;;;;;;;;23.00;43.50;;;;;;4970020;28;45219;-63
2022/09/20 08:14:36;;;;;;;;;;;23.10;43.50;;;;;;4968762;28;45616;-64
2022/09/20 08:17:01;;;;;;;;;;;23.10;43.40;;;;;;4967631;28;44709;-60
2022/09/20 08:19:27;;;;;;;;;;;23.20;43.30;;;;;;4960952;28;44966;-63
2022/09/20 08:21:53;;;;;;;;;;;23.20;43.20;;;;;;4966978;28;45437;-63
2022/09/20 08:24:18;;;;;;;;;;;23.30;43.20;;;;;;4969023;28;45240;-61
2022/09/20 08:26:44;;;;;;;;;;;23.40;43.10;;;;;;4947784;28;45065;-61
2022/09/20 08:29:10;;;;;;;;;;;23.40;42.90;;;;;;4964460;28;45212;-62
2022/09/20 08:31:36;;;;;;;;;;;23.50;43.00;;;;;;4967604;28;45564;-58
2022/09/20 08:34:05;;;;;;;;;;;23.50;42.80;;;;;;4968379;28;46088;-61
2022/09/20 08:36:31;;;;;;;;;;;23.60;42.80;;;;;;4967329;28;45432;-60
2022/09/20 08:38:56;;;;;;;;;;;23.60;42.70;;;;;;4966580;28;45341;-59
2022/09/20 08:41:26;;;;;;;;;;;23.70;43.30;;;;;;4967002;28;44728;-63
2022/09/20 08:43:55;;;;;;;;;;;23.70;42.60;;;;;;4951311;28;46919;-61
2022/09/20 08:46:34;;;;;;;;;;;23.80;42.50;;;;;;4952336;28;45227;-60
2022/09/20 08:49:02;;;;;;;;;;;23.80;42.70;;;;;;4955718;28;45450;-59
2022/09/20 08:51:29;;;;;;;;;;;23.90;42.40;;;;;;4971165;28;45643;-59
2022/09/20 08:53:54;;;;;;;;;;;24.00;42.40;;;;;;4953435;28;45364;-60
2022/09/20 08:56:20;;;;;;;;;;;24.00;42.30;;;;;;4973115;28;45144;-62
2022/09/20 08:58:45;;;;;;;;;;;24.00;42.30;;;;;;4947264;28;44893;-62
2022/09/20 09:01:21;;;;;;;;;;;24.10;42.20;;;;;;4953624;28;45398;-63
2022/09/20 09:03:48;;;;;;;;;;;24.10;42.10;;;;;;4958007;28;46404;-62
2022/09/20 09:06:14;;;;;;;;;;;24.20;41.90;;;;;;4945805;28;45516;-61
2022/09/20 09:08:39;;;;;;;;;;;24.20;41.80;;;;;;4947333;28;44970;-61
2022/09/20 09:11:08;;;;;;;;;;;24.30;41.80;;;;;;4945897;28;46454;-61
2022/09/20 09:13:52;;;;;;;;;;;24.30;41.70;;;;;;4971580;28;45619;-62
2022/09/20 09:16:18;;;;;;;;;;;24.30;41.70;;;;;;4971795;28;45164;-62
2022/09/20 09:18:44;;;;;;;;;;;24.40;41.70;;;;;;4972064;28;45459;-62
2022/09/20 09:21:16;;;;;;;;;;;24.40;41.60;;;;;;4973585;28;45248;-64
2022/09/20 09:23:44;;;;;;;;;;;24.40;41.60;;;;;;4973432;28;46192;-58
2022/09/20 09:26:17;;;;;;;;;;;24.40;41.50;;;;;;4970408;28;45541;-62
2022/09/20 09:28:42;;;;;;;;;;;24.50;41.50;;;;;;4975351;28;45239;-61
2022/09/20 09:31:12;;;;;;;;;;;24.50;41.40;;;;;;4958864;28;45306;-59
2022/09/20 09:33:45;;;;;;;;;;;24.50;41.40;;;;;;4968259;28;45507;-62
2022/09/20 09:36:13;;;;;;;;;;;24.50;41.40;;;;;;4977264;28;45278;-61
2022/09/20 09:38:40;;;;;;;;;;;24.60;41.40;;;;;;4980095;28;45526;-62
2022/09/20 09:41:23;;;;;;;;;;;24.60;41.30;;;;;;4975898;28;45658;-64
2022/09/20 09:43:57;;;;;;;;;;;24.60;41.30;;;;;;4975657;28;46157;-61
2022/09/20 09:46:25;;;;;;;;;;;24.60;41.40;;;;;;4975069;28;44756;-62
2022/09/20 09:49:03;;;;;;;;;;;24.70;41.40;;;;;;4975689;28;45169;-59
2022/09/20 09:51:31;;;;;;;;;;;24.70;41.30;;;;;;4972311;28;44757;-63
2022/09/20 09:53:56;;;;;;;;;;;24.80;41.30;;;;;;4973169;28;45917;-62
2022/09/20 09:56:34;;;;;;;;;;;24.80;41.20;;;;;;4971185;28;45511;-62
2022/09/20 09:59:12;;;;;;;;;;;24.80;41.20;;;;;;4958869;28;45393;-62
2022/09/20 10:01:49;;;;;;;;;;;24.90;41.10;;;;;;4957861;28;45651;-62
2022/09/20 10:04:16;;;;;;;;;;;24.90;41.00;;;;;;4954970;28;46215;-62
2022/09/20 10:06:44;;;;;;;;;;;25.00;40.90;;;;;;4943519;28;45565;-62
2022/09/20 10:09:13;;;;;;;;;;;25.00;40.70;;;;;;4952190;28;48687;-61
2022/09/20 10:11:57;;;;;;;;;;;25.00;40.70;;;;;;4969071;28;45534;-63
2022/09/20 10:14:34;;;;;;;;;;;25.00;40.70;;;;;;4963133;28;46247;-60
2022/09/20 10:17:00;;;;;;;;;;;25.10;40.70;;;;;;4959696;28;45387;-60
2022/09/20 10:19:31;;;;;;;;;;;25.10;40.80;;;;;;4969333;28;45267;-61
2022/09/20 10:22:07;;;;;;;;;;;25.10;40.70;;;;;;4971283;28;45466;-61
2022/09/20 10:24:44;;;;;;;;;;;25.10;40.60;;;;;;4962912;28;46009;-61
2022/09/20 10:27:21;;;;;;;;;;;25.10;40.60;;;;;;4963876;28;44836;-62
2022/09/20 10:29:52;;;;;;;;;;;25.20;40.60;;;;;;4954213;28;44738;-62
2022/09/20 10:32:25;;;;;;;;;;;25.20;40.60;;;;;;4958980;28;44654;-61
2022/09/20 10:34:55;;;;;;;;;;;25.20;40.60;;;;;;4958078;28;45298;-59
2022/09/20 10:37:21;;;;;;;;;;;25.20;40.60;;;;;;4960665;28;45241;-61
2022/09/20 10:39:47;;;;;;;;;;;25.20;40.50;;;;;;4977855;28;45188;-59
2022/09/20 10:45:00;;;;;;;;;;;25.20;40.50;;;;;;4971506;28;46761;-63
2022/09/20 10:47:27;;;;;;;;;;;25.20;40.40;;;;;;4965297;28;44903;-60
2022/09/20 10:50:16;;;;;;;;;;;25.20;40.40;;;;;;4965634;28;45423;-61
2022/09/20 10:52:51;;;;;;;;;;;25.30;40.60;;;;;;4961707;28;45473;-63
2022/09/20 10:55:19;;;;;;;;;;;25.20;40.40;;;;;;4953796;28;45116;-62
2022/09/20 10:57:55;;;;;;;;;;;25.30;40.50;;;;;;4942751;28;44901;-62
2022/09/20 11:00:21;;;;;;;;;;;25.30;40.40;;;;;;4970297;28;45291;-63
2022/09/20 11:03:01;;;;;;;;;;;25.30;40.50;;;;;;4958811;28;45812;-62
2022/09/20 11:05:46;;;;;;;;;;;25.40;40.40;;;;;;4952879;28;46200;-63
2022/09/20 11:08:12;;;;;;;;;;;25.40;40.50;;;;;;4964427;28;44892;-62
2022/09/20 11:10:38;;;;;;;;;;;25.40;40.50;;;;;;4956443;28;46503;-59
2022/09/20 11:13:09;;;;;;;;;;;25.40;40.50;;;;;;4969046;28;45602;-62
2022/09/20 11:15:42;;;;;;;;;;;25.40;40.40;;;;;;4960154;28;45212;-68
2022/09/20 11:18:22;;;;;;;;;;;25.40;40.50;;;;;;4976992;28;44677;-61
2022/09/20 11:21:16;;;;;;;;;;;25.50;40.40;;;;;;4960842;28;45252;-65
2022/09/20 11:23:42;;;;;;;;;;;25.50;40.30;;;;;;4967337;28;45497;-62
2022/09/20 11:26:32;;;;;;;;;;;25.50;40.30;;;;;;4970335;28;47610;-62
2022/09/20 11:29:00;;;;;;;;;;;25.60;40.20;;;;;;4964434;28;45335;-60
2022/09/20 11:31:30;;;;;;;;;;;25.60;40.20;;;;;;4952380;28;44718;-61
2022/09/20 11:34:04;;;;;;;;;;;25.60;40.20;;;;;;4954256;28;45398;-61
2022/09/20 11:36:33;;;;;;;;;;;25.60;40.10;;;;;;4974887;28;46277;-61
2022/09/20 11:39:02;;;;;;;;;;;25.70;40.20;;;;;;4953334;28;45249;-60
2022/09/20 11:41:28;;;;;;;;;;;25.70;40.10;;;;;;4948826;28;45363;-61
2022/09/20 11:43:54;;;;;;;;;;;25.80;40.10;;;;;;4943480;28;45258;-60
2022/09/20 11:46:27;;;;;;;;;;;25.80;40.10;;;;;;4968399;28;46208;-59
2022/09/20 11:48:54;;;;;;;;;;;25.80;40.10;;;;;;4951623;28;45891;-59
2022/09/20 11:51:38;;;;;;;;;;;25.80;40.00;;;;;;4968274;28;45474;-61
2022/09/20 11:54:09;;;;;;;;;;;25.80;40.10;;;;;;4961451;28;45473;-64
2022/09/20 11:56:35;;;;;;;;;;;25.90;40.10;;;;;;4952810;28;46238;-63
2022/09/20 11:59:02;;;;;;;;;;;25.90;40.00;;;;;;4953726;28;45598;-62
2022/09/20 12:01:28;;;;;;;;;;;25.80;40.10;;;;;;4969538;28;44927;-63
2022/09/20 12:03:55;;;;;;;;;;;25.70;40.20;;;;;;4967911;28;45156;-63
2022/09/20 12:06:33;;;;;;;;;;;25.60;40.20;;;;;;4953464;28;46167;-61
2022/09/20 12:09:00;;;;;;;;;;;25.60;40.40;;;;;;4939915;28;45657;-61
2022/09/20 12:11:32;;;;;;;;;;;25.50;40.40;;;;;;4973096;28;45563;-61
2022/09/20 12:14:00;;;;;;;;;;;25.40;40.40;;;;;;4973833;28;45303;-63
2022/09/20 12:16:41;;;;;;;;;;;25.40;40.40;;;;;;4950617;28;46195;-62
2022/09/20 12:19:08;;;;;;;;;;;25.40;40.60;;;;;;4955006;28;45177;-62
2022/09/20 12:21:53;;;;;;;;;;;25.30;40.70;;;;;;4971102;28;45608;-59
2022/09/20 12:24:19;;;;;;;;;;;25.30;40.90;;;;;;4965711;28;45032;-63
2022/09/20 12:26:44;;;;;;;;;;;25.20;40.80;;;;;;4965461;28;46949;-60
2022/09/20 12:29:22;;;;;;;;;;;25.20;40.80;;;;;;4969795;28;45311;-62
2022/09/20 12:31:48;;;;;;;;;;;25.20;40.90;;;;;;4970554;28;44950;-61
2022/09/20 12:34:14;;;;;;;;;;;25.20;41.10;;;;;;4967118;28;45489;-58
2022/09/20 12:36:43;;;;;;;;;;;25.10;41.00;;;;;;4960962;28;46138;-64
2022/09/20 12:39:09;;;;;;;;;;;25.10;41.00;;;;;;4951431;28;44948;-62
2022/09/20 12:41:47;;;;;;;;;;;25.00;41.10;;;;;;4969605;28;44698;-62
2022/09/20 12:44:29;;;;;;;;;;;25.00;41.00;;;;;;4974934;28;45299;-59
2022/09/20 12:46:56;;;;;;;;;;;24.90;41.10;;;;;;4973756;28;45678;-61
2022/09/20 12:52:56;;;;;;;;;;;24.80;41.20;;;;;;4946330;28;44969;-61
2022/09/20 12:55:28;;;;;;;;;;;24.80;41.30;;;;;;4929025;28;45374;-60
2022/09/20 12:57:57;;;;;;;;;;;24.80;41.30;;;;;;4970948;28;45568;-58
2022/09/20 13:00:30;;;;;;;;;;;24.80;41.50;;;;;;4967310;28;44954;-62
2022/09/20 13:02:58;;;;;;;;;;;24.70;41.40;;;;;;4967515;28;45408;-60
2022/09/20 13:05:31;;;;;;;;;;;24.70;41.50;;;;;;4960772;28;45691;-62
2022/09/20 13:08:01;;;;;;;;;;;24.70;41.60;;;;;;4970671;28;47182;-61
2022/09/20 13:10:29;;;;;;;;;;;24.60;41.60;;;;;;4957703;28;45965;-64
2022/09/20 13:13:02;;;;;;;;;;;24.60;41.70;;;;;;4957455;28;45357;-64
2022/09/20 13:15:27;;;;;;;;;;;24.60;41.80;;;;;;4956899;28;45333;-61
2022/09/20 13:17:53;;;;;;;;;;;24.50;41.80;;;;;;4955634;28;45880;-65
2022/09/20 13:20:20;;;;;;;;;;;24.50;41.90;;;;;;4966425;28;45493;-61
2022/09/20 13:22:45;;;;;;;;;;;24.50;41.90;;;;;;4967263;28;45571;-59
2022/09/20 13:25:12;;;;;;;;;;;24.40;41.90;;;;;;4950256;28;45385;-57
2022/09/20 13:27:38;;;;;;;;;;;24.40;42.00;;;;;;4952507;28;46333;-61
2022/09/20 13:30:23;;;;;;;;;;;24.40;42.00;;;;;;4949518;28;45204;-60
2022/09/20 13:32:49;;;;;;;;;;;24.40;42.10;;;;;;4963847;28;44786;-59
2022/09/20 13:35:21;;;;;;;;;;;24.40;42.20;;;;;;4969585;28;45129;-62
2022/09/20 13:37:53;;;;;;;;;;;24.40;42.20;;;;;;4948862;28;45912;-61
2022/09/20 13:40:20;;;;;;;;;;;24.30;42.20;;;;;;4935722;28;44905;-61
2022/09/20 13:42:46;;;;;;;;;;;24.30;42.20;;;;;;4963782;28;45331;-60
2022/09/20 13:45:12;;;;;;;;;;;24.30;42.30;;;;;;4937301;28;45150;-61
2022/09/20 13:47:39;;;;;;;;;;;24.20;42.30;;;;;;4962683;28;45464;-61
2022/09/20 13:50:24;;;;;;;;;;;24.20;42.30;;;;;;4952559;28;45214;-61
2022/09/20 13:52:50;;;;;;;;;;;24.20;42.40;;;;;;4956751;28;44931;-61
2022/09/20 13:55:20;;;;;;;;;;;24.10;42.40;;;;;;4972334;28;45213;-60
2022/09/20 13:57:46;;;;;;;;;;;24.10;42.50;;;;;;4964622;28;47108;-60
2022/09/20 14:00:13;;;;;;;;;;;24.10;42.60;;;;;;4964819;28;45286;-60
2022/09/20 14:02:39;;;;;;;;;;;24.10;42.60;;;;;;4949538;28;45368;-62
2022/09/20 14:05:04;;;;;;;;;;;24.10;42.60;;;;;;4957768;28;45559;-61
2022/09/20 14:07:30;;;;;;;;;;;24.10;42.70;;;;;;4949301;28;46358;-61
2022/09/20 14:09:56;;;;;;;;;;;24.00;42.70;;;;;;4974002;28;45289;-61
2022/09/20 14:12:21;;;;;;;;;;;24.00;42.70;;;;;;4966460;28;45200;-62
2022/09/20 14:14:47;;;;;;;;;;;24.00;42.70;;;;;;4956217;28;45423;-61
2022/09/20 14:17:14;;;;;;;;;;;24.00;42.70;;;;;;4958361;28;45233;-61
2022/09/20 14:19:40;;;;;;;;;;;24.00;42.70;;;;;;4974480;28;45468;-61
2022/09/20 14:22:06;;;;;;;;;;;24.00;42.70;;;;;;4940355;28;45492;-61
2022/09/20 14:24:35;;;;;;;;;;;24.00;42.70;;;;;;4950878;28;45315;-60
2022/09/20 14:27:15;;;;;;;;;;;23.90;42.80;;;;;;4965833;28;47330;-58
2022/09/20 14:29:41;;;;;;;;;;;23.90;42.80;;;;;;4970010;28;45183;-56
2022/09/20 14:32:16;;;;;;;;;;;23.90;42.90;;;;;;4966361;28;45551;-60
2022/09/20 14:34:42;;;;;;;;;;;23.90;43.00;;;;;;4968698;28;45540;-61
2022/09/20 14:37:12;;;;;;;;;;;23.90;43.00;;;;;;4964400;28;45982;-61
2022/09/20 14:39:58;;;;;;;;;;;23.90;43.10;;;;;;4966349;28;45441;-59
2022/09/20 14:42:39;;;;;;;;;;;23.80;43.10;;;;;;4968686;28;45543;-60
2022/09/20 14:45:05;;;;;;;;;;;23.80;43.10;;;;;;4960309;28;45403;-60
2022/09/20 14:47:50;;;;;;;;;;;23.80;43.20;;;;;;4957900;28;46220;-59
2022/09/20 14:50:28;;;;;;;;;;;23.80;43.20;;;;;;4974575;28;45486;-60
2022/09/20 14:53:14;;;;;;;;;;;23.80;43.30;;;;;;4967325;28;44782;-59
2022/09/20 14:55:47;;;;;;;;;;;23.80;43.20;;;;;;4958891;28;45014;-64
2022/09/20 14:58:13;;;;;;;;;;;23.80;43.40;;;;;;4952281;28;46041;-62
2022/09/20 15:00:51;;;;;;;;;;;23.70;43.20;;;;;;4968378;28;45198;-64
2022/09/20 15:03:24;;;;;;;;;;;23.70;43.30;;;;;;4960053;28;44750;-63
2022/09/20 15:05:50;;;;;;;;;;;23.70;43.30;;;;;;4952218;28;44695;-69
2022/09/20 15:08:16;;;;;;;;;;;23.60;43.40;;;;;;4952060;28;47885;-63
2022/09/20 15:10:42;;;;;;;;;;;23.60;43.40;;;;;;4948979;28;45234;-65
2022/09/20 15:13:09;;;;;;;;;;;23.60;43.60;;;;;;4970296;28;45238;-63
2022/09/20 15:15:34;;;;;;;;;;;23.60;43.60;;;;;;4950888;28;44964;-63
2022/09/20 15:18:00;;;;;;;;;;;23.60;43.70;;;;;;4968324;28;46154;-64
2022/09/20 15:20:25;;;;;;;;;;;23.60;43.80;;;;;;4967019;28;45608;-63
2022/09/20 15:22:51;;;;;;;;;;;23.50;43.90;;;;;;4972168;28;45181;-63
2022/09/20 15:25:17;;;;;;;;;;;23.50;43.90;;;;;;4962988;28;44770;-64
2022/09/20 15:27:45;;;;;;;;;;;23.50;44.00;;;;;;4970484;28;45977;-61
2022/09/20 15:30:11;;;;;;;;;;;23.50;44.00;;;;;;4968603;28;45221;-61
2022/09/20 15:32:37;;;;;;;;;;;23.40;43.90;;;;;;4955457;28;45280;-61
2022/09/20 15:35:03;;;;;;;;;;;23.40;43.90;;;;;;4967368;28;45664;-63
2022/09/20 15:37:28;;;;;;;;;;;23.40;44.00;;;;;;4972195;28;46086;-64
2022/09/20 15:39:54;;;;;;;;;;;23.40;44.00;;;;;;4957458;28;45237;-62
2022/09/20 15:42:20;;;;;;;;;;;23.40;44.00;;;;;;4973842;28;45234;-61
2022/09/20 15:44:51;;;;;;;;;;;23.30;44.00;;;;;;4968630;28;45461;-61
2022/09/20 15:47:17;;;;;;;;;;;23.30;44.00;;;;;;4946593;28;45161;-63
2022/09/20 15:49:45;;;;;;;;;;;23.30;44.10;;;;;;4966058;28;45663;-62
2022/09/20 15:52:12;;;;;;;;;;;23.30;44.10;;;;;;4968206;28;45504;-61
2022/09/20 15:54:37;;;;;;;;;;;23.30;44.20;;;;;;4973030;28;44814;-68
2022/09/20 15:57:03;;;;;;;;;;;23.20;44.20;;;;;;4951641;28;44852;-63
2022/09/20 15:59:31;;;;;;;;;;;23.20;44.20;;;;;;4960979;28;44727;-63
2022/09/20 16:01:57;;;;;;;;;;;23.20;44.10;;;;;;4965825;28;45470;-63
2022/09/20 16:04:25;;;;;;;;;;;23.20;44.20;;;;;;4952883;28;45326;-63
2022/09/20 16:06:51;;;;;;;;;;;23.10;44.20;;;;;;4965011;28;46105;-63
2022/09/20 16:09:17;;;;;;;;;;;23.10;44.30;;;;;;4955542;28;45526;-60
2022/09/20 16:11:42;;;;;;;;;;;23.10;44.30;;;;;;4969308;28;45312;-62
2022/09/20 16:14:08;;;;;;;;;;;23.10;44.30;;;;;;4968912;28;45386;-63
2022/09/20 16:16:33;;;;;;;;;;;23.00;44.30;;;;;;4952279;28;46069;-63
2022/09/20 16:19:19;;;;;;;;;;;23.00;44.30;;;;;;4957472;28;44698;-62
2022/09/20 16:21:49;;;;;;;;;;;23.00;44.40;;;;;;4969085;28;45462;-63
2022/09/20 16:24:17;;;;;;;;;;;23.00;44.40;;;;;;4970646;28;45014;-63
2022/09/20 16:26:43;;;;;;;;;;;23.00;44.40;;;;;;4967239;28;46040;-63
2022/09/20 16:29:10;;;;;;;;;;;23.00;44.40;;;;;;4967587;28;45240;-62
2022/09/20 16:31:39;;;;;;;;;;;23.00;44.50;;;;;;4960954;28;45484;-63
2022/09/20 16:34:31;;;;;;;;;;;22.90;44.40;;;;;;4951249;28;45297;-64
2022/09/20 16:36:58;;;;;;;;;;;22.90;44.30;;;;;;4965919;28;45942;-61
2022/09/20 16:39:26;;;;;;;;;;;22.90;44.40;;;;;;4957759;28;45238;-63
2022/09/20 16:41:53;;;;;;;;;;;22.90;44.40;;;;;;4960692;28;45248;-63
2022/09/20 16:44:18;;;;;;;;;;;22.90;44.40;;;;;;4948164;28;45465;-62
2022/09/20 16:46:44;;;;;;;;;;;22.90;44.40;;;;;;4957189;28;46878;-64
2022/09/20 16:49:11;;;;;;;;;;;22.80;44.30;;;;;;4975903;28;44686;-64
2022/09/20 16:51:38;;;;;;;;;;;22.80;44.40;;;;;;4947508;28;45328;-65
2022/09/20 16:54:05;;;;;;;;;;;22.80;44.40;;;;;;4966045;28;45470;-63
2022/09/20 16:56:32;;;;;;;;;;;22.80;44.40;;;;;;4949492;28;46386;-63
2022/09/20 16:58:59;;;;;;;;;;;22.80;44.40;;;;;;4970150;28;44872;-64
2022/09/20 17:01:24;;;;;;;;;;;22.70;44.30;;;;;;4970060;28;45405;-63
2022/09/20 17:03:50;;;;;;;;;;;22.70;44.40;;;;;;4967259;28;46299;-62
2022/09/20 17:06:17;;;;;;;;;;;22.70;44.40;;;;;;4952746;28;46042;-63
2022/09/20 17:08:45;;;;;;;;;;;22.70;44.40;;;;;;4968545;28;44629;-65
2022/09/20 17:11:11;;;;;;;;;;;22.70;44.40;;;;;;4965070;28;45213;-63
2022/09/20 17:13:40;;;;;;;;;;;22.60;44.40;;;;;;4968027;28;45913;-60
2022/09/20 17:16:09;;;;;;;;;;;22.60;44.40;;;;;;4967785;28;46184;-62
2022/09/20 17:18:35;;;;;;;;;;;22.60;44.50;;;;;;4964144;28;45204;-63
2022/09/20 17:21:02;;;;;;;;;;;22.60;44.40;;;;;;4968463;28;44757;-62
2022/09/20 17:23:27;;;;;;;;;;;22.60;44.50;;;;;;4966450;28;45402;-63
2022/09/20 17:26:06;;;;;;;;;;;22.60;44.60;;;;;;4951247;28;45328;-63
2022/09/20 17:28:35;;;;;;;;;;;22.60;44.60;;;;;;4967552;28;45782;-61
2022/09/20 17:31:01;;;;;;;;;;;22.50;44.60;;;;;;4960935;28;45043;-63
2022/09/20 17:33:29;;;;;;;;;;;22.50;44.60;;;;;;4965287;28;45253;-63
2022/09/20 17:35:54;;;;;;;;;;;22.50;44.70;;;;;;4967402;28;46022;-63
2022/09/20 17:38:21;;;;;;;;;;;22.40;44.80;;;;;;4950834;28;45426;-64
2022/09/20 17:40:46;;;;;;;;;;;22.40;44.70;;;;;;4968680;28;45149;-63
2022/09/20 17:43:12;;;;;;;;;;;22.40;44.70;;;;;;4950687;28;45248;-64